sensor_id;sensor_type;location;lat;lon;timestamp;P1;durP1;ratioP1;P2;durP2;ratioP2
14118;SDS011;7138;49.246;9.100;2023-03-24T00:00:18;5.78;;;2.88;;
14118;SDS011;7138;49.246;9.100;2023-03-24T00:05:16;5.82;;;2.10;;
14118;SDS011;7138;49.246;9.100;2023-03-24T00:07:44;5.22;;;2.20;;
14118;SDS011;7138;49.246;9.100;2023-03-24T00:10:13;5.13;;;2.00;;
14118;SDS011;7138;49.246;9.100;2023-03-24T00:12:42;4.97;;;2.30;;
14118;SDS011;7138;49.246;9.100;2023-03-24T00:15:10;4.13;;;2.35;;
14118;SDS011;7138;49.246;9.100;2023-03-24T00:17:45;4.55;;;2.08;;
14118;SDS011;7138;49.246;9.100;2023-03-24T00:20:14;5.10;;;1.92;;
14118;SDS011;7138;49.246;9.100;2023-03-24T00:22:42;4.78;;;1.95;;
14118;SDS011;7138;49.246;9.100;2023-03-24T00:25:14;3.60;;;2.00;;
14118;SDS011;7138;49.246;9.100;2023-03-24T00:27:41;5.97;;;2.05;;
14118;SDS011;7138;49.246;9.100;2023-03-24T00:30:09;4.05;;;2.03;;
14118;SDS011;7138;49.246;9.100;2023-03-24T00:32:37;4.65;;;1.90;;
14118;SDS011;7138;49.246;9.100;2023-03-24T00:35:03;5.00;;;2.40;;
14118;SDS011;7138;49.246;9.100;2023-03-24T00:37:33;6.75;;;2.13;;
14118;SDS011;7138;49.246;9.100;2023-03-24T00:40:01;3.50;;;1.88;;
14118;SDS011;7138;49.246;9.100;2023-03-24T00:42:32;4.72;;;2.10;;
14118;SDS011;7138;49.246;9.100;2023-03-24T00:44:59;4.35;;;2.17;;
14118;SDS011;7138;49.246;9.100;2023-03-24T00:47:27;4.32;;;2.00;;
14118;SDS011;7138;49.246;9.100;2023-03-24T00:49:53;4.28;;;2.30;;
14118;SDS011;7138;49.246;9.100;2023-03-24T00:52:22;4.47;;;2.50;;
14118;SDS011;7138;49.246;9.100;2023-03-24T00:54:58;4.30;;;2.35;;
14118;SDS011;7138;49.246;9.100;2023-03-24T00:57:29;6.78;;;2.78;;
14118;SDS011;7138;49.246;9.100;2023-03-24T01:00:00;5.50;;;2.40;;
14118;SDS011;7138;49.246;9.100;2023-03-24T01:02:38;5.65;;;2.42;;
14118;SDS011;7138;49.246;9.100;2023-03-24T01:05:04;4.80;;;2.47;;
14118;SDS011;7138;49.246;9.100;2023-03-24T01:07:32;4.70;;;2.35;;
14118;SDS011;7138;49.246;9.100;2023-03-24T01:09:59;6.18;;;2.50;;
14118;SDS011;7138;49.246;9.100;2023-03-24T01:12:26;4.53;;;2.22;;
14118;SDS011;7138;49.246;9.100;2023-03-24T01:14:57;7.28;;;2.35;;
14118;SDS011;7138;49.246;9.100;2023-03-24T01:17:27;5.15;;;2.20;;
14118;SDS011;7138;49.246;9.100;2023-03-24T01:19:54;7.18;;;2.40;;
14118;SDS011;7138;49.246;9.100;2023-03-24T01:22:20;5.95;;;2.22;;
14118;SDS011;7138;49.246;9.100;2023-03-24T01:24:50;5.80;;;2.00;;
14118;SDS011;7138;49.246;9.100;2023-03-24T01:27:17;5.18;;;2.33;;
14118;SDS011;7138;49.246;9.100;2023-03-24T01:29:43;4.32;;;2.08;;
14118;SDS011;7138;49.246;9.100;2023-03-24T01:32:10;4.65;;;2.40;;
14118;SDS011;7138;49.246;9.100;2023-03-24T01:34:36;3.80;;;2.00;;
14118;SDS011;7138;49.246;9.100;2023-03-24T01:37:02;4.40;;;2.30;;
14118;SDS011;7138;49.246;9.100;2023-03-24T01:39:29;5.15;;;2.55;;
14118;SDS011;7138;49.246;9.100;2023-03-24T01:41:55;4.57;;;2.20;;
14118;SDS011;7138;49.246;9.100;2023-03-24T01:44:22;5.45;;;2.25;;
14118;SDS011;7138;49.246;9.100;2023-03-24T01:46:52;6.53;;;2.40;;
14118;SDS011;7138;49.246;9.100;2023-03-24T01:49:20;5.38;;;2.50;;
14118;SDS011;7138;49.246;9.100;2023-03-24T01:51:51;4.55;;;2.35;;
14118;SDS011;7138;49.246;9.100;2023-03-24T01:54:22;4.30;;;2.10;;
14118;SDS011;7138;49.246;9.100;2023-03-24T01:56:54;4.57;;;2.42;;
14118;SDS011;7138;49.246;9.100;2023-03-24T01:59:26;4.82;;;2.42;;
14118;SDS011;7138;49.246;9.100;2023-03-24T02:01:55;5.15;;;2.67;;
14118;SDS011;7138;49.246;9.100;2023-03-24T02:04:28;4.32;;;2.22;;
14118;SDS011;7138;49.246;9.100;2023-03-24T02:06:55;5.50;;;2.30;;
14118;SDS011;7138;49.246;9.100;2023-03-24T02:09:28;4.82;;;2.10;;
14118;SDS011;7138;49.246;9.100;2023-03-24T02:11:53;4.72;;;2.53;;
14118;SDS011;7138;49.246;9.100;2023-03-24T02:14:19;5.25;;;2.33;;
14118;SDS011;7138;49.246;9.100;2023-03-24T02:16:53;4.57;;;2.40;;
14118;SDS011;7138;49.246;9.100;2023-03-24T02:23:04;4.25;;;2.28;;
14118;SDS011;7138;49.246;9.100;2023-03-24T02:26:40;5.15;;;2.22;;
14118;SDS011;7138;49.246;9.100;2023-03-24T02:33:02;4.50;;;1.95;;
14118;SDS011;7138;49.246;9.100;2023-03-24T02:42:24;3.63;;;2.10;;
14118;SDS011;7138;49.246;9.100;2023-03-24T02:45:13;5.93;;;2.08;;
14118;SDS011;7138;49.246;9.100;2023-03-24T02:47:55;5.18;;;1.90;;
14118;SDS011;7138;49.246;9.100;2023-03-24T02:50:43;5.00;;;2.03;;
14118;SDS011;7138;49.246;9.100;2023-03-24T02:53:16;4.80;;;2.15;;
14118;SDS011;7138;49.246;9.100;2023-03-24T02:55:53;4.18;;;2.20;;
14118;SDS011;7138;49.246;9.100;2023-03-24T02:58:28;3.92;;;2.22;;
14118;SDS011;7138;49.246;9.100;2023-03-24T03:01:03;3.45;;;1.98;;
14118;SDS011;7138;49.246;9.100;2023-03-24T03:03:38;3.60;;;2.05;;
14118;SDS011;7138;49.246;9.100;2023-03-24T03:06:10;4.95;;;2.40;;
14118;SDS011;7138;49.246;9.100;2023-03-24T03:08:42;3.90;;;2.03;;
14118;SDS011;7138;49.246;9.100;2023-03-24T03:11:13;5.07;;;1.97;;
14118;SDS011;7138;49.246;9.100;2023-03-24T03:13:42;5.13;;;2.25;;
14118;SDS011;7138;49.246;9.100;2023-03-24T03:16:14;5.20;;;2.38;;
14118;SDS011;7138;49.246;9.100;2023-03-24T03:18:50;4.28;;;2.08;;
14118;SDS011;7138;49.246;9.100;2023-03-24T03:21:22;5.63;;;1.95;;
14118;SDS011;7138;49.246;9.100;2023-03-24T03:23:55;4.03;;;2.40;;
14118;SDS011;7138;49.246;9.100;2023-03-24T03:26:25;3.95;;;2.20;;
14118;SDS011;7138;49.246;9.100;2023-03-24T03:28:57;5.22;;;2.40;;
14118;SDS011;7138;49.246;9.100;2023-03-24T03:31:30;4.65;;;2.13;;
14118;SDS011;7138;49.246;9.100;2023-03-24T03:34:02;4.20;;;2.08;;
14118;SDS011;7138;49.246;9.100;2023-03-24T03:36:39;5.38;;;2.20;;
14118;SDS011;7138;49.246;9.100;2023-03-24T03:39:15;6.20;;;1.90;;
14118;SDS011;7138;49.246;9.100;2023-03-24T03:41:50;5.70;;;2.17;;
14118;SDS011;7138;49.246;9.100;2023-03-24T03:44:16;4.82;;;2.25;;
14118;SDS011;7138;49.246;9.100;2023-03-24T03:46:42;5.95;;;2.30;;
14118;SDS011;7138;49.246;9.100;2023-03-24T03:49:08;3.95;;;2.10;;
14118;SDS011;7138;49.246;9.100;2023-03-24T03:51:34;4.07;;;2.10;;
14118;SDS011;7138;49.246;9.100;2023-03-24T03:54:01;5.25;;;1.90;;
14118;SDS011;7138;49.246;9.100;2023-03-24T03:56:33;6.32;;;1.70;;
14118;SDS011;7138;49.246;9.100;2023-03-24T03:59:02;4.45;;;1.95;;
14118;SDS011;7138;49.246;9.100;2023-03-24T04:01:31;5.00;;;2.00;;
14118;SDS011;7138;49.246;9.100;2023-03-24T04:04:15;5.95;;;2.05;;
14118;SDS011;7138;49.246;9.100;2023-03-24T04:07:07;4.47;;;1.75;;
14118;SDS011;7138;49.246;9.100;2023-03-24T04:09:48;3.92;;;1.60;;
14118;SDS011;7138;49.246;9.100;2023-03-24T04:12:35;4.13;;;1.80;;
14118;SDS011;7138;49.246;9.100;2023-03-24T04:15:28;4.15;;;2.00;;
14118;SDS011;7138;49.246;9.100;2023-03-24T04:18:05;3.95;;;1.70;;
14118;SDS011;7138;49.246;9.100;2023-03-24T04:20:50;4.15;;;1.70;;
14118;SDS011;7138;49.246;9.100;2023-03-24T04:23:33;3.13;;;1.50;;
14118;SDS011;7138;49.246;9.100;2023-03-24T04:26:13;3.33;;;1.65;;
14118;SDS011;7138;49.246;9.100;2023-03-24T04:28:53;5.82;;;1.60;;
14118;SDS011;7138;49.246;9.100;2023-03-24T04:31:36;5.18;;;1.60;;
14118;SDS011;7138;49.246;9.100;2023-03-24T04:34:09;4.25;;;1.75;;
14118;SDS011;7138;49.246;9.100;2023-03-24T04:36:45;5.25;;;1.70;;
14118;SDS011;7138;49.246;9.100;2023-03-24T04:39:18;5.75;;;1.95;;
14118;SDS011;7138;49.246;9.100;2023-03-24T04:41:52;3.72;;;1.80;;
14118;SDS011;7138;49.246;9.100;2023-03-24T04:44:20;3.92;;;1.77;;
14118;SDS011;7138;49.246;9.100;2023-03-24T04:46:50;4.35;;;1.80;;
14118;SDS011;7138;49.246;9.100;2023-03-24T04:49:21;5.15;;;2.03;;
14118;SDS011;7138;49.246;9.100;2023-03-24T04:51:51;3.92;;;2.00;;
14118;SDS011;7138;49.246;9.100;2023-03-24T04:54:17;3.63;;;2.13;;
14118;SDS011;7138;49.246;9.100;2023-03-24T04:56:43;5.05;;;2.22;;
14118;SDS011;7138;49.246;9.100;2023-03-24T04:59:12;4.63;;;2.30;;
14118;SDS011;7138;49.246;9.100;2023-03-24T05:01:39;5.75;;;2.53;;
14118;SDS011;7138;49.246;9.100;2023-03-24T05:04:07;5.00;;;2.67;;
14118;SDS011;7138;49.246;9.100;2023-03-24T05:06:33;5.65;;;2.67;;
14118;SDS011;7138;49.246;9.100;2023-03-24T05:08:59;4.65;;;2.75;;
14118;SDS011;7138;49.246;9.100;2023-03-24T05:11:25;5.18;;;3.00;;
14118;SDS011;7138;49.246;9.100;2023-03-24T05:13:52;7.10;;;3.15;;
14118;SDS011;7138;49.246;9.100;2023-03-24T05:16:18;4.50;;;3.10;;
14118;SDS011;7138;49.246;9.100;2023-03-24T05:18:44;5.65;;;2.75;;
14118;SDS011;7138;49.246;9.100;2023-03-24T05:21:12;6.90;;;3.10;;
14118;SDS011;7138;49.246;9.100;2023-03-24T05:23:38;9.45;;;3.28;;
14118;SDS011;7138;49.246;9.100;2023-03-24T05:26:04;5.15;;;3.13;;
14118;SDS011;7138;49.246;9.100;2023-03-24T05:28:31;5.25;;;3.10;;
14118;SDS011;7138;49.246;9.100;2023-03-24T05:30:57;7.10;;;3.42;;
14118;SDS011;7138;49.246;9.100;2023-03-24T05:33:22;6.03;;;3.47;;
14118;SDS011;7138;49.246;9.100;2023-03-24T05:35:48;6.97;;;3.60;;
14118;SDS011;7138;49.246;9.100;2023-03-24T05:38:15;5.53;;;3.47;;
14118;SDS011;7138;49.246;9.100;2023-03-24T05:40:42;7.97;;;3.70;;
14118;SDS011;7138;49.246;9.100;2023-03-24T05:43:07;7.13;;;4.18;;
14118;SDS011;7138;49.246;9.100;2023-03-24T05:45:36;7.07;;;4.15;;
14118;SDS011;7138;49.246;9.100;2023-03-24T05:48:02;9.57;;;4.40;;
14118;SDS011;7138;49.246;9.100;2023-03-24T05:50:28;8.77;;;4.60;;
14118;SDS011;7138;49.246;9.100;2023-03-24T05:52:54;8.23;;;4.40;;
14118;SDS011;7138;49.246;9.100;2023-03-24T05:55:21;10.27;;;5.38;;
14118;SDS011;7138;49.246;9.100;2023-03-24T05:57:47;8.00;;;4.82;;
14118;SDS011;7138;49.246;9.100;2023-03-24T06:00:13;8.63;;;4.70;;
14118;SDS011;7138;49.246;9.100;2023-03-24T06:02:41;7.82;;;5.18;;
14118;SDS011;7138;49.246;9.100;2023-03-24T06:05:08;9.77;;;5.55;;
14118;SDS011;7138;49.246;9.100;2023-03-24T06:07:35;9.35;;;5.45;;
14118;SDS011;7138;49.246;9.100;2023-03-24T06:10:02;9.70;;;5.32;;
14118;SDS011;7138;49.246;9.100;2023-03-24T06:12:30;7.70;;;5.47;;
14118;SDS011;7138;49.246;9.100;2023-03-24T06:14:56;8.77;;;5.40;;
14118;SDS011;7138;49.246;9.100;2023-03-24T06:17:22;11.25;;;6.10;;
14118;SDS011;7138;49.246;9.100;2023-03-24T06:19:48;9.70;;;6.20;;
14118;SDS011;7138;49.246;9.100;2023-03-24T06:22:15;9.82;;;5.75;;
14118;SDS011;7138;49.246;9.100;2023-03-24T06:24:41;9.82;;;6.18;;
14118;SDS011;7138;49.246;9.100;2023-03-24T06:27:07;11.02;;;6.40;;
14118;SDS011;7138;49.246;9.100;2023-03-24T06:29:34;13.98;;;6.47;;
14118;SDS011;7138;49.246;9.100;2023-03-24T06:32:00;10.18;;;6.20;;
14118;SDS011;7138;49.246;9.100;2023-03-24T06:34:27;8.90;;;6.13;;
14118;SDS011;7138;49.246;9.100;2023-03-24T06:36:53;10.85;;;6.22;;
14118;SDS011;7138;49.246;9.100;2023-03-24T06:39:20;11.30;;;6.45;;
14118;SDS011;7138;49.246;9.100;2023-03-24T06:41:47;11.02;;;6.82;;
14118;SDS011;7138;49.246;9.100;2023-03-24T06:44:13;10.38;;;5.53;;
14118;SDS011;7138;49.246;9.100;2023-03-24T06:46:40;10.88;;;6.25;;
14118;SDS011;7138;49.246;9.100;2023-03-24T06:49:06;8.30;;;5.03;;
14118;SDS011;7138;49.246;9.100;2023-03-24T06:51:32;8.05;;;5.45;;
14118;SDS011;7138;49.246;9.100;2023-03-24T06:53:58;9.80;;;5.28;;
14118;SDS011;7138;49.246;9.100;2023-03-24T06:56:24;9.48;;;5.00;;
14118;SDS011;7138;49.246;9.100;2023-03-24T06:58:51;9.15;;;4.90;;
14118;SDS011;7138;49.246;9.100;2023-03-24T07:01:17;9.13;;;5.10;;
14118;SDS011;7138;49.246;9.100;2023-03-24T07:03:45;8.05;;;5.00;;
14118;SDS011;7138;49.246;9.100;2023-03-24T07:06:12;7.47;;;4.80;;
14118;SDS011;7138;49.246;9.100;2023-03-24T07:08:38;8.70;;;5.00;;
14118;SDS011;7138;49.246;9.100;2023-03-24T07:11:04;7.93;;;5.25;;
14118;SDS011;7138;49.246;9.100;2023-03-24T07:13:31;7.78;;;4.40;;
14118;SDS011;7138;49.246;9.100;2023-03-24T07:15:57;7.28;;;4.72;;
14118;SDS011;7138;49.246;9.100;2023-03-24T07:18:23;7.60;;;4.47;;
14118;SDS011;7138;49.246;9.100;2023-03-24T07:20:50;7.80;;;4.80;;
14118;SDS011;7138;49.246;9.100;2023-03-24T07:23:16;5.97;;;4.70;;
14118;SDS011;7138;49.246;9.100;2023-03-24T07:25:42;7.00;;;4.40;;
14118;SDS011;7138;49.246;9.100;2023-03-24T07:28:08;7.65;;;4.25;;
14118;SDS011;7138;49.246;9.100;2023-03-24T07:30:34;8.50;;;4.90;;
14118;SDS011;7138;49.246;9.100;2023-03-24T07:33:01;5.50;;;4.10;;
14118;SDS011;7138;49.246;9.100;2023-03-24T07:35:28;6.72;;;4.22;;
14118;SDS011;7138;49.246;9.100;2023-03-24T07:37:57;7.38;;;3.97;;
14118;SDS011;7138;49.246;9.100;2023-03-24T07:40:23;9.13;;;3.50;;
14118;SDS011;7138;49.246;9.100;2023-03-24T07:42:50;6.82;;;3.70;;
14118;SDS011;7138;49.246;9.100;2023-03-24T07:45:16;6.25;;;3.60;;
14118;SDS011;7138;49.246;9.100;2023-03-24T07:47:42;9.63;;;3.80;;
14118;SDS011;7138;49.246;9.100;2023-03-24T07:50:09;7.32;;;3.60;;
14118;SDS011;7138;49.246;9.100;2023-03-24T07:52:38;6.80;;;3.30;;
14118;SDS011;7138;49.246;9.100;2023-03-24T07:55:07;4.95;;;3.00;;
14118;SDS011;7138;49.246;9.100;2023-03-24T07:57:39;7.15;;;3.42;;
14118;SDS011;7138;49.246;9.100;2023-03-24T08:00:07;6.57;;;3.03;;
14118;SDS011;7138;49.246;9.100;2023-03-24T08:02:39;8.25;;;4.50;;
14118;SDS011;7138;49.246;9.100;2023-03-24T08:05:05;22.25;;;10.65;;
14118;SDS011;7138;49.246;9.100;2023-03-24T08:07:33;14.45;;;6.68;;
14118;SDS011;7138;49.246;9.100;2023-03-24T08:09:59;15.10;;;7.38;;
14118;SDS011;7138;49.246;9.100;2023-03-24T08:12:26;43.67;;;19.92;;
14118;SDS011;7138;49.246;9.100;2023-03-24T08:14:52;16.20;;;8.10;;
14118;SDS011;7138;49.246;9.100;2023-03-24T08:17:17;15.65;;;9.65;;
14118;SDS011;7138;49.246;9.100;2023-03-24T08:19:43;9.32;;;6.07;;
14118;SDS011;7138;49.246;9.100;2023-03-24T08:22:10;11.73;;;4.10;;
14118;SDS011;7138;49.246;9.100;2023-03-24T08:24:35;15.15;;;5.60;;
14118;SDS011;7138;49.246;9.100;2023-03-24T08:27:01;8.73;;;3.55;;
14118;SDS011;7138;49.246;9.100;2023-03-24T08:29:31;10.73;;;3.60;;
14118;SDS011;7138;49.246;9.100;2023-03-24T08:32:00;8.80;;;3.67;;
14118;SDS011;7138;49.246;9.100;2023-03-24T08:34:27;9.15;;;3.53;;
14118;SDS011;7138;49.246;9.100;2023-03-24T08:36:53;11.32;;;4.10;;
14118;SDS011;7138;49.246;9.100;2023-03-24T08:39:18;10.70;;;3.60;;
14118;SDS011;7138;49.246;9.100;2023-03-24T08:41:44;9.73;;;3.78;;
14118;SDS011;7138;49.246;9.100;2023-03-24T08:44:11;3.78;;;1.90;;
14118;SDS011;7138;49.246;9.100;2023-03-24T08:46:38;4.95;;;2.20;;
14118;SDS011;7138;49.246;9.100;2023-03-24T08:49:04;7.82;;;2.47;;
14118;SDS011;7138;49.246;9.100;2023-03-24T08:51:30;3.17;;;1.70;;
14118;SDS011;7138;49.246;9.100;2023-03-24T08:53:56;4.40;;;1.92;;
14118;SDS011;7138;49.246;9.100;2023-03-24T08:56:22;4.70;;;1.92;;
14118;SDS011;7138;49.246;9.100;2023-03-24T08:58:49;4.25;;;2.00;;
14118;SDS011;7138;49.246;9.100;2023-03-24T09:01:17;3.53;;;1.80;;
14118;SDS011;7138;49.246;9.100;2023-03-24T09:03:45;3.30;;;1.70;;
14118;SDS011;7138;49.246;9.100;2023-03-24T09:06:11;3.80;;;1.70;;
14118;SDS011;7138;49.246;9.100;2023-03-24T09:08:38;5.15;;;1.98;;
14118;SDS011;7138;49.246;9.100;2023-03-24T09:11:05;3.90;;;1.48;;
14118;SDS011;7138;49.246;9.100;2023-03-24T09:13:37;3.00;;;1.70;;
14118;SDS011;7138;49.246;9.100;2023-03-24T09:16:03;4.35;;;1.70;;
14118;SDS011;7138;49.246;9.100;2023-03-24T09:18:29;3.20;;;1.45;;
14118;SDS011;7138;49.246;9.100;2023-03-24T09:20:58;3.47;;;1.60;;
14118;SDS011;7138;49.246;9.100;2023-03-24T09:23:25;3.45;;;1.55;;
14118;SDS011;7138;49.246;9.100;2023-03-24T09:25:53;3.85;;;1.63;;
14118;SDS011;7138;49.246;9.100;2023-03-24T09:28:19;3.15;;;1.80;;
14118;SDS011;7138;49.246;9.100;2023-03-24T09:30:45;4.93;;;1.50;;
14118;SDS011;7138;49.246;9.100;2023-03-24T09:33:11;10.15;;;2.97;;
14118;SDS011;7138;49.246;9.100;2023-03-24T09:35:37;5.82;;;2.10;;
14118;SDS011;7138;49.246;9.100;2023-03-24T09:38:05;5.28;;;1.73;;
14118;SDS011;7138;49.246;9.100;2023-03-24T09:40:32;7.53;;;2.30;;
14118;SDS011;7138;49.246;9.100;2023-03-24T09:43:04;6.88;;;3.17;;
14118;SDS011;7138;49.246;9.100;2023-03-24T09:45:41;4.80;;;2.03;;
14118;SDS011;7138;49.246;9.100;2023-03-24T09:48:16;7.93;;;2.83;;
14118;SDS011;7138;49.246;9.100;2023-03-24T09:50:56;6.70;;;2.80;;
14118;SDS011;7138;49.246;9.100;2023-03-24T09:53:28;5.95;;;2.63;;
14118;SDS011;7138;49.246;9.100;2023-03-24T09:56:02;4.03;;;2.53;;
14118;SDS011;7138;49.246;9.100;2023-03-24T09:58:36;8.52;;;3.78;;
14118;SDS011;7138;49.246;9.100;2023-03-24T10:01:06;4.95;;;2.00;;
14118;SDS011;7138;49.246;9.100;2023-03-24T10:03:38;3.72;;;1.92;;
14118;SDS011;7138;49.246;9.100;2023-03-24T10:06:06;5.28;;;1.90;;
14118;SDS011;7138;49.246;9.100;2023-03-24T10:08:36;4.68;;;1.90;;
14118;SDS011;7138;49.246;9.100;2023-03-24T10:11:08;3.15;;;1.30;;
14118;SDS011;7138;49.246;9.100;2023-03-24T10:13:53;3.28;;;1.20;;
14118;SDS011;7138;49.246;9.100;2023-03-24T10:16:34;3.30;;;1.65;;
14118;SDS011;7138;49.246;9.100;2023-03-24T10:19:14;4.25;;;1.55;;
14118;SDS011;7138;49.246;9.100;2023-03-24T10:22:04;3.03;;;1.10;;
14118;SDS011;7138;49.246;9.100;2023-03-24T10:24:41;3.30;;;1.10;;
14118;SDS011;7138;49.246;9.100;2023-03-24T10:27:18;2.72;;;1.10;;
14118;SDS011;7138;49.246;9.100;2023-03-24T10:29:53;2.72;;;1.13;;
14118;SDS011;7138;49.246;9.100;2023-03-24T10:32:27;2.88;;;1.23;;
14118;SDS011;7138;49.246;9.100;2023-03-24T10:34:59;2.53;;;1.15;;
14118;SDS011;7138;49.246;9.100;2023-03-24T10:37:33;3.05;;;1.30;;
14118;SDS011;7138;49.246;9.100;2023-03-24T10:40:05;2.33;;;1.00;;
14118;SDS011;7138;49.246;9.100;2023-03-24T10:42:40;5.40;;;1.17;;
14118;SDS011;7138;49.246;9.100;2023-03-24T10:45:10;3.00;;;1.30;;
14118;SDS011;7138;49.246;9.100;2023-03-24T10:47:38;2.85;;;1.10;;
14118;SDS011;7138;49.246;9.100;2023-03-24T10:50:07;3.30;;;1.20;;
14118;SDS011;7138;49.246;9.100;2023-03-24T10:52:37;3.25;;;1.33;;
14118;SDS011;7138;49.246;9.100;2023-03-24T10:55:06;6.20;;;1.75;;
14118;SDS011;7138;49.246;9.100;2023-03-24T10:57:41;3.95;;;1.33;;
14118;SDS011;7138;49.246;9.100;2023-03-24T11:00:14;3.35;;;1.30;;
14118;SDS011;7138;49.246;9.100;2023-03-24T11:02:52;3.03;;;1.43;;
14118;SDS011;7138;49.246;9.100;2023-03-24T11:05:25;4.35;;;1.42;;
14118;SDS011;7138;49.246;9.100;2023-03-24T11:07:55;3.65;;;1.50;;
14118;SDS011;7138;49.246;9.100;2023-03-24T11:10:38;3.15;;;1.48;;
14118;SDS011;7138;49.246;9.100;2023-03-24T11:13:04;3.70;;;1.42;;
14118;SDS011;7138;49.246;9.100;2023-03-24T11:15:51;3.75;;;1.50;;
14118;SDS011;7138;49.246;9.100;2023-03-24T11:18:20;3.90;;;1.70;;
14118;SDS011;7138;49.246;9.100;2023-03-24T11:20:46;5.18;;;1.83;;
14118;SDS011;7138;49.246;9.100;2023-03-24T11:23:24;3.70;;;1.80;;
14118;SDS011;7138;49.246;9.100;2023-03-24T11:26:02;3.50;;;1.60;;
14118;SDS011;7138;49.246;9.100;2023-03-24T11:28:38;4.93;;;2.00;;
14118;SDS011;7138;49.246;9.100;2023-03-24T11:31:09;4.00;;;1.92;;
14118;SDS011;7138;49.246;9.100;2023-03-24T11:33:44;3.92;;;1.77;;
14118;SDS011;7138;49.246;9.100;2023-03-24T11:36:40;3.67;;;1.90;;
14118;SDS011;7138;49.246;9.100;2023-03-24T11:41:43;4.65;;;2.08;;
14118;SDS011;7138;49.246;9.100;2023-03-24T11:44:32;4.25;;;2.28;;
14118;SDS011;7138;49.246;9.100;2023-03-24T11:47:11;4.15;;;2.50;;
14118;SDS011;7138;49.246;9.100;2023-03-24T11:49:45;5.57;;;2.30;;
14118;SDS011;7138;49.246;9.100;2023-03-24T11:52:22;4.00;;;1.90;;
14118;SDS011;7138;49.246;9.100;2023-03-24T11:54:56;4.20;;;2.38;;
14118;SDS011;7138;49.246;9.100;2023-03-24T11:57:27;6.47;;;2.88;;
14118;SDS011;7138;49.246;9.100;2023-03-24T12:00:12;4.70;;;2.50;;
14118;SDS011;7138;49.246;9.100;2023-03-24T12:02:50;4.43;;;2.97;;
14118;SDS011;7138;49.246;9.100;2023-03-24T12:05:40;4.18;;;2.40;;
14118;SDS011;7138;49.246;9.100;2023-03-24T12:08:17;4.57;;;2.45;;
14118;SDS011;7138;49.246;9.100;2023-03-24T12:11:10;4.95;;;2.60;;
14118;SDS011;7138;49.246;9.100;2023-03-24T12:13:46;5.28;;;2.63;;
14118;SDS011;7138;49.246;9.100;2023-03-24T12:16:16;4.68;;;2.40;;
14118;SDS011;7138;49.246;9.100;2023-03-24T12:18:58;5.70;;;1.60;;
14118;SDS011;7138;49.246;9.100;2023-03-24T12:21:52;4.38;;;1.35;;
14118;SDS011;7138;49.246;9.100;2023-03-24T12:24:33;4.50;;;1.10;;
14118;SDS011;7138;49.246;9.100;2023-03-24T12:27:24;3.45;;;1.55;;
14118;SDS011;7138;49.246;9.100;2023-03-24T12:30:03;4.50;;;1.33;;
14118;SDS011;7138;49.246;9.100;2023-03-24T12:32:43;4.25;;;0.95;;
14118;SDS011;7138;49.246;9.100;2023-03-24T12:35:30;2.80;;;0.80;;
14118;SDS011;7138;49.246;9.100;2023-03-24T12:38:24;5.00;;;0.90;;
14118;SDS011;7138;49.246;9.100;2023-03-24T12:41:12;3.75;;;0.98;;
14118;SDS011;7138;49.246;9.100;2023-03-24T12:44:04;6.85;;;1.25;;
14118;SDS011;7138;49.246;9.100;2023-03-24T12:47:03;2.42;;;0.80;;
14118;SDS011;7138;49.246;9.100;2023-03-24T12:49:49;3.05;;;0.80;;
14118;SDS011;7138;49.246;9.100;2023-03-24T12:52:34;4.30;;;1.10;;
14118;SDS011;7138;49.246;9.100;2023-03-24T12:55:17;3.70;;;0.82;;
14118;SDS011;7138;49.246;9.100;2023-03-24T12:57:52;5.60;;;1.20;;
14118;SDS011;7138;49.246;9.100;2023-03-24T13:00:26;4.43;;;1.30;;
14118;SDS011;7138;49.246;9.100;2023-03-24T13:02:58;18.90;;;3.03;;
14118;SDS011;7138;49.246;9.100;2023-03-24T13:05:30;4.93;;;1.15;;
14118;SDS011;7138;49.246;9.100;2023-03-24T13:08:02;6.93;;;1.40;;
14118;SDS011;7138;49.246;9.100;2023-03-24T13:10:37;4.22;;;1.35;;
14118;SDS011;7138;49.246;9.100;2023-03-24T13:13:07;5.53;;;1.00;;
14118;SDS011;7138;49.246;9.100;2023-03-24T13:15:40;4.18;;;0.98;;
14118;SDS011;7138;49.246;9.100;2023-03-24T13:18:17;4.85;;;1.40;;
14118;SDS011;7138;49.246;9.100;2023-03-24T13:20:54;6.47;;;1.73;;
14118;SDS011;7138;49.246;9.100;2023-03-24T13:23:34;5.78;;;2.15;;
14118;SDS011;7138;49.246;9.100;2023-03-24T13:26:09;4.05;;;1.10;;
14118;SDS011;7138;49.246;9.100;2023-03-24T13:31:52;6.35;;;1.35;;
14118;SDS011;7138;49.246;9.100;2023-03-24T13:34:26;6.55;;;1.27;;
14118;SDS011;7138;49.246;9.100;2023-03-24T13:36:58;6.07;;;1.33;;
14118;SDS011;7138;49.246;9.100;2023-03-24T13:39:29;9.10;;;1.83;;
14118;SDS011;7138;49.246;9.100;2023-03-24T13:41:58;6.80;;;1.55;;
14118;SDS011;7138;49.246;9.100;2023-03-24T13:44:27;4.00;;;1.10;;
14118;SDS011;7138;49.246;9.100;2023-03-24T13:47:04;7.55;;;1.42;;
14118;SDS011;7138;49.246;9.100;2023-03-24T13:49:37;7.72;;;1.50;;
14118;SDS011;7138;49.246;9.100;2023-03-24T13:52:06;5.13;;;1.60;;
14118;SDS011;7138;49.246;9.100;2023-03-24T13:54:51;5.25;;;1.20;;
14118;SDS011;7138;49.246;9.100;2023-03-24T13:57:26;5.95;;;1.40;;
14118;SDS011;7138;49.246;9.100;2023-03-24T13:59:57;8.18;;;1.33;;
14118;SDS011;7138;49.246;9.100;2023-03-24T14:02:44;6.97;;;1.30;;
14118;SDS011;7138;49.246;9.100;2023-03-24T14:05:32;6.03;;;1.58;;
14118;SDS011;7138;49.246;9.100;2023-03-24T14:08:10;4.78;;;1.25;;
14118;SDS011;7138;49.246;9.100;2023-03-24T14:10:41;8.55;;;1.20;;
14118;SDS011;7138;49.246;9.100;2023-03-24T14:16:26;4.72;;;1.13;;
14118;SDS011;7138;49.246;9.100;2023-03-24T14:22:02;5.50;;;1.35;;
14118;SDS011;7138;49.246;9.100;2023-03-24T14:24:36;5.63;;;1.20;;
14118;SDS011;7138;49.246;9.100;2023-03-24T14:27:20;5.43;;;0.95;;
14118;SDS011;7138;49.246;9.100;2023-03-24T14:29:58;5.35;;;1.20;;
14118;SDS011;7138;49.246;9.100;2023-03-24T14:32:26;4.72;;;1.40;;
14118;SDS011;7138;49.246;9.100;2023-03-24T14:34:53;10.85;;;1.60;;
14118;SDS011;7138;49.246;9.100;2023-03-24T14:37:24;7.72;;;1.45;;
14118;SDS011;7138;49.246;9.100;2023-03-24T14:39:52;7.18;;;1.40;;
14118;SDS011;7138;49.246;9.100;2023-03-24T14:42:25;5.85;;;1.48;;
14118;SDS011;7138;49.246;9.100;2023-03-24T14:48:14;5.93;;;1.40;;
14118;SDS011;7138;49.246;9.100;2023-03-24T14:50:57;6.53;;;1.40;;
14118;SDS011;7138;49.246;9.100;2023-03-24T14:53:31;7.18;;;1.48;;
14118;SDS011;7138;49.246;9.100;2023-03-24T14:56:02;6.82;;;1.50;;
14118;SDS011;7138;49.246;9.100;2023-03-24T14:58:32;5.78;;;1.25;;
14118;SDS011;7138;49.246;9.100;2023-03-24T15:01:03;9.30;;;1.83;;
14118;SDS011;7138;49.246;9.100;2023-03-24T15:03:32;7.03;;;1.10;;
14118;SDS011;7138;49.246;9.100;2023-03-24T15:06:10;8.93;;;2.10;;
14118;SDS011;7138;49.246;9.100;2023-03-24T15:08:40;6.20;;;1.42;;
14118;SDS011;7138;49.246;9.100;2023-03-24T15:11:12;6.60;;;1.27;;
14118;SDS011;7138;49.246;9.100;2023-03-24T15:13:43;6.07;;;1.30;;
14118;SDS011;7138;49.246;9.100;2023-03-24T15:16:16;5.32;;;1.30;;
14118;SDS011;7138;49.246;9.100;2023-03-24T15:18:48;6.13;;;1.60;;
14118;SDS011;7138;49.246;9.100;2023-03-24T15:21:22;9.38;;;1.58;;
14118;SDS011;7138;49.246;9.100;2023-03-24T15:23:56;7.65;;;1.80;;
14118;SDS011;7138;49.246;9.100;2023-03-24T15:26:23;4.75;;;1.15;;
14118;SDS011;7138;49.246;9.100;2023-03-24T15:28:54;5.07;;;1.55;;
14118;SDS011;7138;49.246;9.100;2023-03-24T15:31:23;8.88;;;1.73;;
14118;SDS011;7138;49.246;9.100;2023-03-24T15:34:00;5.78;;;1.40;;
14118;SDS011;7138;49.246;9.100;2023-03-24T15:36:33;6.85;;;1.60;;
14118;SDS011;7138;49.246;9.100;2023-03-24T15:39:16;7.75;;;1.50;;
14118;SDS011;7138;49.246;9.100;2023-03-24T15:41:43;4.75;;;1.30;;
14118;SDS011;7138;49.246;9.100;2023-03-24T15:44:12;4.38;;;1.52;;
14118;SDS011;7138;49.246;9.100;2023-03-24T15:46:44;8.48;;;1.52;;
14118;SDS011;7138;49.246;9.100;2023-03-24T15:49:15;7.20;;;1.55;;
14118;SDS011;7138;49.246;9.100;2023-03-24T15:51:50;7.78;;;1.50;;
14118;SDS011;7138;49.246;9.100;2023-03-24T15:54:27;5.47;;;1.40;;
14118;SDS011;7138;49.246;9.100;2023-03-24T15:56:58;6.25;;;1.40;;
14118;SDS011;7138;49.246;9.100;2023-03-24T15:59:41;7.93;;;1.42;;